createdAt,value
2023-04-26T13:07:39.284Z,101915.25
2023-04-26T13:12:43.445Z,101910.88
2023-04-26T13:17:47.587Z,101914.03
2023-04-26T13:22:53.011Z,101906.22
2023-04-26T13:27:57.096Z,101905.38
2023-04-26T13:33:01.438Z,101893.28
2023-04-26T13:38:06.873Z,101894.84
2023-04-26T13:43:11.003Z,101893.69
2023-04-26T13:48:15.418Z,101886.47
2023-04-26T13:53:21.541Z,101888.72
2023-04-26T13:58:25.643Z,101883.94
2023-04-26T14:03:30.054Z,101890.97
2023-04-26T14:08:36.301Z,101882.91
2023-04-26T14:13:40.883Z,101874.50
2023-04-26T14:18:48.747Z,101869.72
2023-04-26T14:23:54.179Z,101871.38
2023-04-26T14:28:58.295Z,101870.13
2023-04-26T14:34:02.398Z,101888.06
2023-04-26T14:39:07.921Z,101889.81
2023-04-26T14:44:11.995Z,101888.25
2023-04-26T14:49:16.077Z,101882.44
2023-04-26T14:54:21.492Z,101886.47
2023-04-26T14:59:25.636Z,101876.38
2023-04-26T15:04:30.022Z,101867.16
2023-04-26T15:09:35.781Z,101865.44
2023-04-26T15:14:39.860Z,101863.06
2023-04-26T15:19:43.938Z,101854.09
2023-04-26T15:24:50.987Z,101846.28
2023-04-26T15:29:56.575Z,101840.59
2023-04-26T15:35:00.696Z,101847.16
2023-04-26T15:40:10.526Z,101842.38
2023-04-26T15:45:15.026Z,101827.84
2023-04-26T15:50:19.027Z,101828.66
2023-04-26T15:55:24.492Z,101818.94
2023-04-26T16:00:28.683Z,101822.25
2023-04-26T16:05:32.773Z,101828.28
2023-04-26T16:10:38.440Z,101844.63
2023-04-26T16:15:42.707Z,101853.59
2023-04-26T16:20:46.820Z,101849.31
2023-04-26T16:25:52.419Z,101834.56
2023-04-26T16:30:56.974Z,101830.41
2023-04-26T16:36:01.061Z,101831.34
2023-04-26T16:41:07.245Z,101826.88
2023-04-26T16:46:11.713Z,101827.31
2023-04-26T16:51:15.851Z,101833.56
2023-04-26T16:56:21.326Z,101825.84
2023-04-26T17:01:25.897Z,101835.66
2023-04-26T17:06:30.094Z,101836.94
2023-04-26T17:11:37.417Z,101839.06
2023-04-26T17:16:41.663Z,101830.78
2023-04-26T17:21:45.900Z,101839.84
2023-04-26T17:26:51.737Z,101855.19
2023-04-26T17:31:55.909Z,101848.97
2023-04-26T17:36:59.991Z,101852.59
2023-04-26T17:42:05.583Z,101856.13
2023-04-26T17:47:09.648Z,101865.25
2023-04-26T17:52:13.735Z,101865.88
2023-04-26T17:57:20.325Z,101861.47
2023-04-26T18:02:24.757Z,101866.25
2023-04-26T18:07:28.990Z,101870.75
2023-04-26T18:12:34.360Z,101882.66
2023-04-26T18:17:38.445Z,101882.97
2023-04-26T18:22:42.634Z,101880.81
2023-04-26T18:27:48.150Z,101891.50
2023-04-26T18:32:53.435Z,101891.91
2023-04-26T18:37:57.579Z,101892.44
2023-04-26T18:43:03.033Z,101894.75
2023-04-26T18:48:07.820Z,101892.00
2023-04-26T18:53:11.955Z,101901.03
2023-04-26T18:58:17.709Z,101909.75
2023-04-26T19:03:22.207Z,101910.31
2023-04-26T19:08:26.856Z,101927.22
2023-04-26T19:13:32.984Z,101918.41
2023-04-26T19:18:37.319Z,101926.16
2023-04-26T19:23:41.331Z,101930.44
2023-04-26T19:28:46.796Z,101925.16
2023-04-26T19:33:50.805Z,101928.91
2023-04-26T19:38:54.944Z,101929.81
2023-04-26T19:44:00.452Z,101933.06
2023-04-26T19:49:04.503Z,101940.09
2023-04-26T19:54:08.561Z,101942.06
2023-04-26T19:59:14.941Z,101931.25
2023-04-26T20:04:19.147Z,101943.13
2023-04-26T20:09:23.503Z,101937.88
2023-04-26T20:14:30.354Z,101933.94
2023-04-26T20:19:34.399Z,101949.81
2023-04-26T20:24:38.436Z,101950.13
2023-04-26T20:29:44.054Z,101948.81
2023-04-26T20:34:48.164Z,101942.56
2023-04-26T20:39:52.196Z,101952.38
2023-04-26T20:44:59.270Z,101953.84
2023-04-26T20:50:05.426Z,101950.16
2023-04-26T20:55:10.054Z,101968.78
2023-04-26T21:00:16.347Z,101965.81
2023-04-26T21:05:20.790Z,101965.69
2023-04-26T21:10:24.788Z,101977.91
2023-04-26T21:15:30.279Z,101973.25
2023-04-26T21:20:35.041Z,101968.34
2023-04-26T21:25:39.110Z,101979.16
2023-04-26T21:30:44.503Z,101980.34
2023-04-26T21:35:48.544Z,101969.34
2023-04-26T21:40:52.608Z,101973.94
2023-04-26T21:45:58.986Z,101979.00
2023-04-26T21:51:03.064Z,101974.06
2023-04-26T21:56:07.811Z,101977.84
2023-04-26T22:01:15.925Z,101982.47
2023-04-26T22:06:20.417Z,101981.97
2023-04-26T22:11:24.404Z,101975.31
2023-04-26T22:16:29.825Z,101982.38
2023-04-26T22:21:33.955Z,101984.44
2023-04-26T22:26:37.956Z,101982.13
2023-04-26T22:31:43.310Z,101979.13
2023-04-26T22:36:47.635Z,101981.16
2023-04-26T22:41:51.609Z,101991.81
2023-04-26T22:46:59.222Z,102000.72
2023-04-26T22:52:09.699Z,101994.22
2023-04-26T22:57:21.174Z,102003.56
2023-04-26T23:02:26.608Z,102013.75
2023-04-26T23:07:30.703Z,102006.25
2023-04-26T23:12:36.065Z,102008.22
2023-04-26T23:17:41.856Z,102020.56
2023-04-26T23:22:46.011Z,102018.97
2023-04-26T23:27:49.960Z,102040.97
2023-04-26T23:32:55.673Z,102038.84
2023-04-26T23:37:59.726Z,102038.41
2023-04-26T23:43:03.854Z,102038.00
2023-04-26T23:48:09.322Z,102036.78
2023-04-26T23:53:13.590Z,102036.88
2023-04-26T23:58:17.555Z,102044.69
